createdAt,value
2018-06-05T00:00:00.358Z,43.00
2018-06-05T00:02:33.814Z,44.30
2018-06-05T00:05:10.686Z,44.90
2018-06-05T00:07:43.831Z,44.60
2018-06-05T00:10:17.946Z,45.70
2018-06-05T00:12:52.111Z,47.00
2018-06-05T00:15:27.780Z,47.80
2018-06-05T00:18:01.781Z,48.50
2018-06-05T00:20:39.166Z,44.80
2018-06-05T00:23:12.771Z,44.10
2018-06-05T00:25:48.009Z,42.80
2018-06-05T00:28:21.270Z,43.70
2018-06-05T00:30:54.320Z,45.50
2018-06-05T00:33:28.014Z,44.40
2018-06-05T00:36:06.338Z,46.10
2018-06-05T00:38:40.019Z,46.00
2018-06-05T00:41:13.834Z,45.50
2018-06-05T00:43:47.513Z,46.40
2018-06-05T00:46:21.720Z,48.60
2018-06-05T00:48:55.885Z,46.90
2018-06-05T00:51:38.468Z,47.00
2018-06-05T00:54:12.286Z,45.70
2018-06-05T00:56:45.961Z,41.90
2018-06-05T00:59:19.444Z,40.20
2018-06-05T01:01:52.800Z,38.60
2018-06-05T01:04:25.833Z,37.70
2018-06-05T01:07:03.594Z,38.70
2018-06-05T01:09:37.116Z,37.50
2018-06-05T01:12:10.493Z,37.80
2018-06-05T01:14:43.913Z,38.40
2018-06-05T01:17:17.386Z,37.00
2018-06-05T01:19:51.673Z,36.80
2018-06-05T01:22:25.049Z,37.70
2018-06-05T01:24:58.797Z,38.50
2018-06-05T01:27:32.356Z,41.00
2018-06-05T01:30:06.281Z,42.10
2018-06-05T01:32:44.530Z,43.00
2018-06-05T01:37:50.494Z,41.90
2018-06-05T01:40:24.610Z,41.50
2018-06-05T01:42:58.052Z,42.10
2018-06-05T01:45:33.441Z,42.30
2018-06-05T01:48:10.639Z,41.40
2018-06-05T01:50:47.198Z,42.90
2018-06-05T01:53:20.800Z,45.80
2018-06-05T01:55:54.365Z,45.70
2018-06-05T01:58:27.615Z,47.00
2018-06-05T02:01:00.791Z,45.90
2018-06-05T02:03:34.030Z,42.80
2018-06-05T02:06:08.086Z,41.80
2018-06-05T02:08:43.096Z,41.30
2018-06-05T02:11:17.229Z,43.20
2018-06-05T02:13:51.434Z,41.80
2018-06-05T02:16:24.823Z,41.80
2018-06-05T02:18:58.386Z,41.70
2018-06-05T02:21:31.801Z,45.90
2018-06-05T02:24:05.517Z,47.40
2018-06-05T02:26:43.424Z,47.70
2018-06-05T02:29:17.879Z,50.20
2018-06-05T02:31:51.326Z,51.30
2018-06-05T02:34:24.893Z,51.40
2018-06-05T02:36:58.568Z,52.50
2018-06-05T02:39:32.148Z,52.00
2018-06-05T02:42:05.599Z,52.40
2018-06-05T02:44:39.062Z,52.40
2018-06-05T02:47:16.984Z,51.80
2018-06-05T02:49:54.067Z,52.20
2018-06-05T02:52:27.773Z,52.40
2018-06-05T02:55:01.374Z,53.30
2018-06-05T02:57:35.181Z,54.20
2018-06-05T03:02:40.757Z,54.20
2018-06-05T03:05:14.655Z,54.10
2018-06-05T03:07:48.150Z,55.10
2018-06-05T03:10:22.556Z,56.30
2018-06-05T03:12:55.970Z,57.60
2018-06-05T03:15:29.423Z,58.60
2018-06-05T03:18:06.081Z,59.30
2018-06-05T03:20:39.834Z,60.20
2018-06-05T03:23:13.596Z,62.10
2018-06-05T03:25:47.521Z,62.50
2018-06-05T03:28:21.321Z,63.00
2018-06-05T03:30:54.533Z,63.40
2018-06-05T03:33:28.158Z,64.50
2018-06-05T03:36:01.495Z,64.30
2018-06-05T03:38:35.060Z,64.50
2018-06-05T03:41:09.332Z,66.00
2018-06-05T03:43:42.963Z,66.60
2018-06-05T03:46:16.580Z,67.60
2018-06-05T03:48:51.092Z,67.30
2018-06-05T03:51:25.227Z,67.80
2018-06-05T03:53:58.133Z,68.80
2018-06-05T03:56:31.346Z,69.20
2018-06-05T03:59:04.478Z,69.80
2018-06-05T04:04:09.611Z,72.00
2018-06-05T04:06:42.571Z,80.80
2018-06-05T04:09:15.726Z,73.40
2018-06-05T04:11:48.797Z,76.70
2018-06-05T04:14:22.626Z,74.80
2018-06-05T04:16:59.583Z,75.40
2018-06-05T04:19:32.868Z,76.50
2018-06-05T04:22:05.970Z,75.10
2018-06-05T04:24:39.178Z,76.00
2018-06-05T04:27:12.160Z,75.90
2018-06-05T04:29:45.330Z,78.50
2018-06-05T04:32:20.782Z,75.50
2018-06-05T04:34:54.031Z,77.20
2018-06-05T04:37:29.782Z,74.90
2018-06-05T04:40:03.593Z,76.00
2018-06-05T04:42:37.422Z,76.20
2018-06-05T04:45:11.274Z,75.70
2018-06-05T04:47:44.855Z,77.50
2018-06-05T04:50:18.203Z,76.50
2018-06-05T04:52:51.806Z,78.30
2018-06-05T04:55:25.541Z,76.80
2018-06-05T04:57:59.427Z,76.20
2018-06-05T05:00:33.201Z,77.50
2018-06-05T05:03:06.578Z,76.80
2018-06-05T05:05:40.234Z,77.00
2018-06-05T05:08:13.623Z,77.00
2018-06-05T05:10:46.827Z,78.30
2018-06-05T05:13:20.885Z,77.90
2018-06-05T05:15:54.767Z,77.80
2018-06-05T05:18:29.264Z,78.90
2018-06-05T05:21:02.867Z,78.80
2018-06-05T05:23:36.587Z,78.20
2018-06-05T05:26:10.329Z,78.80
2018-06-05T05:28:43.976Z,78.70
2018-06-05T05:31:17.388Z,79.80
2018-06-05T05:33:51.276Z,77.90
2018-06-05T05:36:25.184Z,80.60
2018-06-05T05:38:58.788Z,81.50
2018-06-05T05:41:32.436Z,82.80
2018-06-05T05:44:06.181Z,81.00
2018-06-05T05:46:40.213Z,81.20
2018-06-05T05:49:13.964Z,80.20
2018-06-05T05:51:47.449Z,81.50
2018-06-05T05:54:21.014Z,82.40
2018-06-05T05:56:54.723Z,82.50
2018-06-05T05:59:28.692Z,82.70
2018-06-05T06:02:01.948Z,80.80
2018-06-05T06:04:35.328Z,82.40
2018-06-05T06:07:08.535Z,82.00
2018-06-05T06:09:42.828Z,80.50
2018-06-05T06:12:16.490Z,80.30
2018-06-05T06:14:49.833Z,81.70
2018-06-05T06:17:23.185Z,80.80
2018-06-05T06:19:56.494Z,83.60
2018-06-05T06:22:30.038Z,81.30
2018-06-05T06:25:03.599Z,81.40
2018-06-05T06:27:36.930Z,83.40
2018-06-05T06:30:10.583Z,82.30
2018-06-05T06:32:44.094Z,81.30
2018-06-05T06:35:17.537Z,83.30
2018-06-05T06:37:51.180Z,83.30
2018-06-05T06:40:24.557Z,83.20
2018-06-05T06:42:57.728Z,82.60
2018-06-05T06:45:31.442Z,81.90
2018-06-05T06:48:04.989Z,82.30
2018-06-05T06:50:39.146Z,83.60
2018-06-05T06:53:12.727Z,81.00
2018-06-05T06:55:46.298Z,81.90
2018-06-05T06:58:19.894Z,83.10
2018-06-05T07:00:53.414Z,81.50
2018-06-05T07:03:27.034Z,80.90
2018-06-05T07:06:00.892Z,81.70
2018-06-05T07:08:34.244Z,81.30
2018-06-05T07:11:07.609Z,82.60
2018-06-05T07:13:41.305Z,83.40
2018-06-05T07:16:14.795Z,83.50
2018-06-05T07:18:48.340Z,83.10
2018-06-05T07:21:22.472Z,82.20
2018-06-05T07:23:55.991Z,84.10
2018-06-05T07:26:29.383Z,83.80
2018-06-05T07:29:02.840Z,84.80
2018-06-05T07:31:36.205Z,84.70
2018-06-05T07:34:09.485Z,85.60
2018-06-05T07:36:43.942Z,85.70
2018-06-05T07:39:17.754Z,85.90
2018-06-05T07:41:51.182Z,86.90
2018-06-05T07:44:24.595Z,86.60
2018-06-05T07:46:58.529Z,86.70
2018-06-05T07:49:32.278Z,86.60
2018-06-05T07:52:05.890Z,87.60
2018-06-05T07:54:39.602Z,87.00
2018-06-05T07:57:13.228Z,87.70
2018-06-05T07:59:46.377Z,87.40
2018-06-05T08:02:19.764Z,87.80
2018-06-05T08:04:53.383Z,87.50
2018-06-05T08:07:26.836Z,87.80
2018-06-05T08:10:00.223Z,88.40
2018-06-05T08:12:34.138Z,87.60
2018-06-05T08:15:07.872Z,88.60
2018-06-05T08:17:41.215Z,87.80
2018-06-05T08:20:14.581Z,86.00
2018-06-05T08:22:57.404Z,86.10
2018-06-05T08:25:31.201Z,85.40
2018-06-05T08:28:05.004Z,84.70
2018-06-05T08:30:38.921Z,85.40
2018-06-05T08:33:12.209Z,85.60
2018-06-05T08:35:45.657Z,87.20
2018-06-05T08:38:18.810Z,87.20
2018-06-05T08:40:52.455Z,88.70
2018-06-05T08:43:26.100Z,88.30
2018-06-05T08:45:59.687Z,89.10
2018-06-05T08:48:33.329Z,89.70
2018-06-05T08:51:06.481Z,89.40
2018-06-05T08:53:40.057Z,89.00
2018-06-05T08:58:45.657Z,88.80
2018-06-05T09:01:19.086Z,89.50
2018-06-05T09:03:52.661Z,89.20
2018-06-05T09:06:26.443Z,90.10
2018-06-05T09:09:00.160Z,89.80
2018-06-05T09:11:33.561Z,90.10
2018-06-05T09:14:07.518Z,90.10
2018-06-05T09:16:40.764Z,90.00
2018-06-05T09:19:14.305Z,90.60
2018-06-05T09:21:47.971Z,90.40
2018-06-05T09:24:21.900Z,90.50
2018-06-05T09:26:55.458Z,90.70
2018-06-05T09:29:28.540Z,91.30
2018-06-05T09:32:02.510Z,91.10
2018-06-05T09:34:35.963Z,91.30
2018-06-05T09:37:09.989Z,91.10
2018-06-05T09:39:44.401Z,90.80
2018-06-05T09:42:18.153Z,91.10
2018-06-05T09:44:52.184Z,91.60
2018-06-05T09:47:26.135Z,91.40
2018-06-05T09:50:00.779Z,91.60
2018-06-05T09:52:34.052Z,91.20
2018-06-05T09:55:07.766Z,91.30
2018-06-05T09:57:42.774Z,91.40
2018-06-05T10:00:16.388Z,91.40
2018-06-05T10:02:50.569Z,91.30
2018-06-05T10:05:24.726Z,91.30
2018-06-05T10:07:58.353Z,91.50
2018-06-05T10:10:32.372Z,91.40
2018-06-05T10:13:05.617Z,91.60
2018-06-05T10:15:39.305Z,91.30
2018-06-05T10:18:13.042Z,91.90
2018-06-05T10:20:46.734Z,92.70
2018-06-05T10:23:20.717Z,92.80
2018-06-05T10:25:54.166Z,92.50
2018-06-05T10:28:27.349Z,91.70
2018-06-05T10:31:00.834Z,92.60
2018-06-05T10:33:34.492Z,92.30
2018-06-05T10:36:08.788Z,92.20
2018-06-05T10:38:42.436Z,92.20
2018-06-05T10:41:16.242Z,92.40
2018-06-05T10:43:49.538Z,92.30
2018-06-05T10:46:22.952Z,92.20
2018-06-05T10:48:57.803Z,92.30
2018-06-05T10:51:31.456Z,92.50
2018-06-05T10:54:04.977Z,92.30
2018-06-05T10:56:38.564Z,92.30
2018-06-05T10:59:12.669Z,92.20
2018-06-05T11:01:46.696Z,92.30
2018-06-05T11:04:20.862Z,92.70
2018-06-05T11:06:54.379Z,92.90
2018-06-05T11:09:27.836Z,92.80
2018-06-05T11:12:01.947Z,93.00
2018-06-05T11:14:35.730Z,93.00
2018-06-05T11:17:09.297Z,93.30
2018-06-05T11:19:42.754Z,93.20
2018-06-05T11:22:16.121Z,93.60
2018-06-05T11:24:49.498Z,93.60
2018-06-05T11:27:22.907Z,94.00
2018-06-05T11:32:28.770Z,93.60
2018-06-05T11:35:02.508Z,94.10
2018-06-05T11:37:35.902Z,93.70
2018-06-05T11:40:09.569Z,93.90
2018-06-05T11:42:43.104Z,94.00
2018-06-05T11:45:16.737Z,94.30
2018-06-05T11:47:50.205Z,94.80
2018-06-05T11:50:23.900Z,94.50
2018-06-05T11:52:57.797Z,94.50
2018-06-05T11:55:31.613Z,94.60
2018-06-05T11:58:05.248Z,94.60
2018-06-05T12:00:38.963Z,94.70
2018-06-05T12:03:12.653Z,94.90
2018-06-05T12:05:46.200Z,95.00
2018-06-05T12:08:20.040Z,95.10
2018-06-05T12:10:53.772Z,95.20
2018-06-05T12:13:27.256Z,95.10
2018-06-05T12:16:00.893Z,95.00
2018-06-05T12:18:34.419Z,94.70
2018-06-05T12:23:40.245Z,94.60
2018-06-05T12:26:14.027Z,94.40
2018-06-05T12:28:48.347Z,94.30
2018-06-05T12:31:21.980Z,94.20
2018-06-05T12:33:55.565Z,94.20
2018-06-05T12:36:29.454Z,94.10
2018-06-05T12:39:03.430Z,94.20
2018-06-05T12:41:36.873Z,94.30
2018-06-05T12:44:11.308Z,94.50
2018-06-05T12:46:44.886Z,94.10
2018-06-05T12:49:18.433Z,94.30
2018-06-05T12:51:51.847Z,94.10
2018-06-05T12:54:25.413Z,94.10
2018-06-05T12:56:59.085Z,94.00
2018-06-05T12:59:33.119Z,94.20
2018-06-05T13:02:07.099Z,94.00
2018-06-05T13:04:40.494Z,93.80
2018-06-05T13:07:14.428Z,93.70
2018-06-05T13:09:48.027Z,93.90
2018-06-05T13:12:21.022Z,96.20
2018-06-05T13:14:55.155Z,95.80
2018-06-05T13:17:28.665Z,95.10
2018-06-05T13:20:02.424Z,93.90
2018-06-05T13:22:35.855Z,93.80
2018-06-05T13:25:09.368Z,93.30
2018-06-05T13:27:43.017Z,93.70
2018-06-05T13:30:16.831Z,93.60
2018-06-05T13:32:50.805Z,93.60
2018-06-05T13:35:24.397Z,93.60
2018-06-05T13:37:57.680Z,93.80
2018-06-05T13:40:31.364Z,94.00
2018-06-05T13:43:04.937Z,93.90
2018-06-05T13:45:38.665Z,93.60
2018-06-05T13:48:12.148Z,93.00
2018-06-05T13:50:45.759Z,92.80
2018-06-05T13:53:19.478Z,92.80
2018-06-05T13:55:52.986Z,93.70
2018-06-05T13:58:26.365Z,92.80
2018-06-05T14:00:59.863Z,93.30
2018-06-05T14:03:33.162Z,92.30
2018-06-05T14:06:06.428Z,93.00
2018-06-05T14:08:39.666Z,92.30
2018-06-05T14:11:13.143Z,92.00
2018-06-05T14:13:47.032Z,91.70
2018-06-05T14:16:20.843Z,92.60
2018-06-05T14:18:54.362Z,91.70
2018-06-05T14:21:27.651Z,91.90
2018-06-05T14:24:01.002Z,91.00
2018-06-05T14:26:34.743Z,91.30
2018-06-05T14:29:08.449Z,91.60
2018-06-05T14:31:41.823Z,91.10
2018-06-05T14:34:15.385Z,91.40
2018-06-05T14:36:49.133Z,90.50
2018-06-05T14:39:22.944Z,90.20
2018-06-05T14:41:56.774Z,90.50
2018-06-05T14:44:30.524Z,90.40
2018-06-05T14:47:03.769Z,90.10
2018-06-05T14:49:38.736Z,90.40
2018-06-05T14:52:12.436Z,89.40
2018-06-05T14:54:46.139Z,89.80
2018-06-05T14:57:19.608Z,88.00
2018-06-05T14:59:53.338Z,89.70
2018-06-05T15:02:27.520Z,88.80
2018-06-05T15:05:01.190Z,87.20
2018-06-05T15:07:34.618Z,85.40
2018-06-05T15:10:08.273Z,82.50
2018-06-05T15:12:42.713Z,83.70
2018-06-05T15:15:16.001Z,84.40
2018-06-05T15:17:49.429Z,84.40
2018-06-05T15:20:23.281Z,83.60
2018-06-05T15:22:56.472Z,83.00
2018-06-05T15:25:30.234Z,83.60
2018-06-05T15:28:04.188Z,82.50
2018-06-05T15:30:37.672Z,85.10
2018-06-05T15:33:11.255Z,80.90
2018-06-05T15:35:45.404Z,80.80
2018-06-05T15:38:18.797Z,80.40
2018-06-05T15:40:52.168Z,81.70
2018-06-05T15:43:26.111Z,81.30
2018-06-05T15:46:00.633Z,79.60
2018-06-05T15:48:33.764Z,79.80
2018-06-05T15:51:06.714Z,78.00
2018-06-05T15:53:40.321Z,79.60
2018-06-05T15:56:13.832Z,75.60
2018-06-05T15:58:47.030Z,77.80
2018-06-05T16:01:20.128Z,75.70
2018-06-05T16:03:53.012Z,73.50
2018-06-05T16:06:26.988Z,75.10
2018-06-05T16:09:00.878Z,75.90
2018-06-05T16:11:35.877Z,75.10
2018-06-05T16:14:10.227Z,73.30
2018-06-05T16:16:44.972Z,72.90
2018-06-05T16:19:19.724Z,73.70
2018-06-05T16:21:54.207Z,72.10
2018-06-05T16:24:28.490Z,73.40
2018-06-05T16:27:02.032Z,69.10
2018-06-05T16:29:35.783Z,71.80
2018-06-05T16:32:09.334Z,70.40
2018-06-05T16:34:43.410Z,70.10
2018-06-05T16:37:17.768Z,70.80
2018-06-05T16:39:52.359Z,70.90
2018-06-05T16:42:26.131Z,69.70
2018-06-05T16:45:00.907Z,68.70
2018-06-05T16:47:34.840Z,68.60
2018-06-05T16:50:09.092Z,68.70
2018-06-05T16:52:42.429Z,64.00
2018-06-05T16:55:15.409Z,66.20
2018-06-05T16:57:49.399Z,63.50
2018-06-05T17:00:23.472Z,62.40
2018-06-05T17:02:58.163Z,60.50
2018-06-05T17:05:31.371Z,64.40
2018-06-05T17:08:04.631Z,63.80
2018-06-05T17:10:38.943Z,63.80
2018-06-05T17:13:12.755Z,63.30
2018-06-05T17:15:46.292Z,62.70
2018-06-05T17:18:20.033Z,60.00
2018-06-05T17:20:53.498Z,61.90
2018-06-05T17:23:26.890Z,61.60
2018-06-05T17:26:00.474Z,60.00
2018-06-05T17:28:34.214Z,59.50
2018-06-05T17:31:07.712Z,61.30
2018-06-05T17:33:41.358Z,61.50
2018-06-05T17:36:14.785Z,61.90
2018-06-05T17:38:48.177Z,60.90
2018-06-05T17:41:21.769Z,58.00
2018-06-05T17:43:55.640Z,57.40
2018-06-05T17:46:29.440Z,56.10
2018-06-05T17:49:03.040Z,54.90
2018-06-05T17:51:36.504Z,56.10
2018-06-05T17:54:10.196Z,56.80
2018-06-05T17:56:43.782Z,57.10
2018-06-05T17:59:17.648Z,54.80
2018-06-05T18:01:50.981Z,54.30
2018-06-05T18:04:24.473Z,52.50
2018-06-05T18:06:58.182Z,54.10
2018-06-05T18:09:31.925Z,54.60
2018-06-05T18:12:05.912Z,53.60
2018-06-05T18:14:40.118Z,54.80
2018-06-05T18:17:14.117Z,55.30
2018-06-05T18:19:47.842Z,55.70
2018-06-05T18:22:22.803Z,55.40
2018-06-05T18:24:56.833Z,55.70
2018-06-05T18:27:30.732Z,55.10
2018-06-05T18:30:04.797Z,56.70
2018-06-05T18:32:38.666Z,54.60
2018-06-05T18:35:13.172Z,53.00
2018-06-05T18:37:46.898Z,54.70
2018-06-05T18:40:20.654Z,53.80
2018-06-05T18:42:54.320Z,56.00
2018-06-05T18:45:29.296Z,55.50
2018-06-05T18:48:02.852Z,53.50
2018-06-05T18:50:36.416Z,51.00
2018-06-05T18:53:10.194Z,50.50
2018-06-05T18:55:44.242Z,48.60
2018-06-05T18:58:18.195Z,51.20
2018-06-05T19:00:52.075Z,50.40
2018-06-05T19:03:25.928Z,52.10
2018-06-05T19:05:59.853Z,53.20
2018-06-05T19:08:33.531Z,52.90
2018-06-05T19:11:07.058Z,51.60
2018-06-05T19:13:40.206Z,53.00
2018-06-05T19:16:13.757Z,53.70
2018-06-05T19:18:47.095Z,53.10
2018-06-05T19:21:20.739Z,53.50
2018-06-05T19:23:54.804Z,53.40
2018-06-05T19:26:28.342Z,52.10
2018-06-05T19:29:01.901Z,52.30
2018-06-05T19:34:08.219Z,51.60
2018-06-05T19:36:41.846Z,52.00
2018-06-05T19:39:15.755Z,53.20
2018-06-05T19:41:49.475Z,52.90
2018-06-05T19:44:23.561Z,53.70
2018-06-05T19:46:57.329Z,51.40
2018-06-05T19:49:30.666Z,53.60
2018-06-05T19:52:04.905Z,53.50
2018-06-05T19:54:39.456Z,54.20
2018-06-05T19:57:12.992Z,55.40
2018-06-05T19:59:45.928Z,54.60
2018-06-05T20:02:19.428Z,53.70
2018-06-05T20:04:52.664Z,53.70
2018-06-05T20:07:26.116Z,54.20
2018-06-05T20:12:32.657Z,52.50
2018-06-05T20:15:06.732Z,52.50
2018-06-05T20:17:41.099Z,52.60
2018-06-05T20:20:15.077Z,51.60
2018-06-05T20:22:50.612Z,50.80
2018-06-05T20:27:56.464Z,54.00
2018-06-05T20:30:30.312Z,53.30
2018-06-05T20:33:03.636Z,53.50
2018-06-05T20:35:37.989Z,51.00
2018-06-05T20:38:11.440Z,52.50
2018-06-05T20:40:44.905Z,53.20
2018-06-05T20:43:18.306Z,51.60
2018-06-05T20:45:51.834Z,52.70
2018-06-05T20:48:25.888Z,53.00
2018-06-05T20:50:59.564Z,51.40
2018-06-05T20:53:33.615Z,49.60
2018-06-05T20:56:08.153Z,48.50
2018-06-05T20:58:42.372Z,50.80
2018-06-05T21:01:16.531Z,49.80
2018-06-05T21:03:50.561Z,51.60
2018-06-05T21:06:23.650Z,51.70
2018-06-05T21:08:57.291Z,51.20
2018-06-05T21:11:30.476Z,50.10
2018-06-05T21:14:04.272Z,49.50
2018-06-05T21:16:37.503Z,50.40
2018-06-05T21:19:11.883Z,50.80
2018-06-05T21:21:46.406Z,50.60
2018-06-05T21:24:20.453Z,48.50
2018-06-05T21:26:55.173Z,47.50
2018-06-05T21:29:29.263Z,47.00
2018-06-05T21:32:02.803Z,48.20
2018-06-05T21:34:36.152Z,47.40
2018-06-05T21:37:09.947Z,48.00
2018-06-05T21:39:44.275Z,48.80
2018-06-05T21:42:18.232Z,46.40
2018-06-05T21:44:51.799Z,46.60
2018-06-05T21:47:25.554Z,45.70
2018-06-05T21:52:55.102Z,44.80
2018-06-05T21:55:29.691Z,44.70
2018-06-05T21:58:03.939Z,44.60
2018-06-05T22:00:38.063Z,44.20
2018-06-05T22:03:12.458Z,45.40
2018-06-05T22:05:46.294Z,45.70
2018-06-05T22:08:19.630Z,44.90
2018-06-05T22:10:52.864Z,45.70
2018-06-05T22:13:26.448Z,45.40
2018-06-05T22:15:59.975Z,45.20
2018-06-05T22:18:33.210Z,46.70
2018-06-05T22:21:06.932Z,45.20
2018-06-05T22:23:40.130Z,45.00
2018-06-05T22:26:15.313Z,46.70
2018-06-05T22:28:50.337Z,46.40
2018-06-05T22:31:23.643Z,46.20
2018-06-05T22:33:56.841Z,46.40
2018-06-05T22:36:29.865Z,46.50
2018-06-05T22:39:03.133Z,48.00
2018-06-05T22:41:36.519Z,47.40
2018-06-05T22:44:10.028Z,45.90
2018-06-05T22:46:44.607Z,45.40
2018-06-05T22:49:18.826Z,45.70
2018-06-05T22:51:52.242Z,44.70
2018-06-05T22:54:25.285Z,44.30
2018-06-05T22:56:58.924Z,44.40
2018-06-05T22:59:36.844Z,45.20
2018-06-05T23:02:10.439Z,44.50
2018-06-05T23:04:49.026Z,44.80
2018-06-05T23:07:22.445Z,43.10
2018-06-05T23:09:56.561Z,43.30
2018-06-05T23:12:29.946Z,41.50
2018-06-05T23:15:03.777Z,43.80
2018-06-05T23:17:38.362Z,41.30
2018-06-05T23:20:12.316Z,39.40
2018-06-05T23:22:47.184Z,39.30
2018-06-05T23:25:20.716Z,40.50
2018-06-05T23:27:54.487Z,41.70
2018-06-05T23:30:27.763Z,41.70
2018-06-05T23:33:01.609Z,42.70
2018-06-05T23:35:34.987Z,44.80
2018-06-05T23:38:08.302Z,43.20
2018-06-05T23:40:42.151Z,42.50
2018-06-05T23:43:15.569Z,42.50
2018-06-05T23:45:49.200Z,42.40
2018-06-05T23:48:23.199Z,43.00
2018-06-05T23:50:57.266Z,43.00
2018-06-05T23:53:33.031Z,44.70
2018-06-05T23:56:08.582Z,44.90
2018-06-05T23:58:42.812Z,41.50
